• Join FlightAware (Why Join?)
  • Login
  • US Flag 
02:56AM EDT


 

Airport Tracker/Info


-or-


 

Live Flight TrackerFlight Track Log ✈ AMF1026 ✈ 09-May-2013 ✈ KALB - KCVG

Flight Track Log - Related Links

Times and Time Zones

All times are in EDT time to prevent confusion due to time zone crossing. See the AMF1026 flight status page for this flight to view local times or setup timezone preferences in your user account.

Time Position Orientation Groundspeed Altitude Reporting Facility
EDT Latitude Longitude Course Direction KTS MPH feet Rate Location/Type
08:37PM 42.7278 -73.8136 210° Southwest 147 169 1,100  Level Boston Center
08:37PM 42.7067 -73.8303 210° Southwest 188 216 2,100 1,800 Climbing Boston Center
08:39PM 42.7236 -73.9719 279° West 206 237 5,700 1,740 Climbing Boston Center
08:40PM 42.7100 -74.0450 256° West 201 231 7,200 1,440 Climbing Boston Center
08:41PM 42.6881 -74.1150 247° West 201 231 8,600 1,440 Climbing Boston Center
08:42PM 42.6706 -74.1853 251° West 217 250 10,100 1,800 Climbing Boston Center
08:43PM 42.6567 -74.2667 257° West 212 244 12,200 1,680 Climbing Boston Center
08:44PM 42.6536 -74.3317 266° West 197 227 13,500 1,380 Climbing Boston Center
08:45PM 42.6439 -74.4131 261° West 197 227 15,000 1,320 Climbing Boston Center
08:46PM 42.6239 -74.4717 245° Southwest 197 227 16,200 1,200 Climbing Boston Center
08:47PM 42.5956 -74.5469 243° Southwest 204 235 17,400 1,080 Climbing Boston Center
08:48PM 42.5819 -74.6114 254° West 204 235 18,400 1,080 Climbing Boston Center
08:49PM 42.5656 -74.7011 256° West 215 247 19,600 780 Climbing Boston Center
08:50PM 42.5536 -74.7767 258° West 215 247 20,000 180 Climbing Boston Center
08:51PM 42.5328 -74.8661 252° West 230 265 20,000  Level Boston Center
08:52PM 42.5161 -74.9611 257° West 245 282 20,000  Level Boston Center
08:53PM 42.5078 -75.0567 263° West 255 293 20,000  Level Boston Center
08:55PM 42.4575 -75.2392 250° West 264 304 20,000  Level New York Center
08:56PM 42.4247 -75.3325 245° Southwest 270 311 20,000  Level New York Center
08:57PM 42.3942 -75.4231 245° Southwest 270 311 20,000  Level New York Center
08:58PM 42.3594 -75.5131 242° Southwest 270 311 20,000  Level New York Center
08:59PM 42.3206 -75.6028 240° Southwest 275 316 20,000  Level New York Center
09:00PM 42.2856 -75.6928 242° Southwest 275 316 20,000  Level New York Center
09:01PM 42.2547 -75.7828 245° Southwest 275 316 20,000  Level New York Center
09:02PM 42.2281 -75.8733 248° West 275 316 20,000  Level New York Center
09:03PM 42.2050 -75.9694 252° West 270 311 20,000  Level New York Center
09:04PM 42.1803 -76.0597 250° West 264 304 20,000  Level New York Center
09:05PM 42.1575 -76.1503 251° West 264 304 20,000  Level New York Center
09:06PM 42.1244 -76.2400 244° Southwest 264 304 20,000  Level New York Center
09:07PM 42.0911 -76.3294 243° Southwest 269 310 20,000  Level New York Center
09:08PM 42.0639 -76.4192 248° West 269 310 20,000  Level New York Center
09:09PM 42.0344 -76.5117 247° West 269 310 20,000  Level New York Center
09:10PM 42.0028 -76.6094 246° West 269 310 20,000  Level New York Center
09:11PM 41.9733 -76.6989 246° West 269 310 20,000  Level New York Center
09:14PM 41.9056 -76.9142 247° West 265 305 20,000  Level Cleveland Center
09:15PM 41.8750 -77.0050 246° West 265 305 20,000  Level Cleveland Center
09:16PM 41.8400 -77.0878 240° Southwest 265 305 20,000  Level Cleveland Center
09:17PM 41.8031 -77.1733 240° Southwest 265 305 20,000  Level Cleveland Center
09:18PM 41.7636 -77.2536 237° Southwest 265 305 20,000  Level Cleveland Center
09:19PM 41.7264 -77.3361 239° Southwest 265 305 20,000  Level Cleveland Center
09:20PM 41.6933 -77.4211 243° Southwest 259 298 20,000  Level Cleveland Center
09:21PM 41.6539 -77.5067 238° Southwest 264 304 20,000  Level Cleveland Center
09:22PM 41.6231 -77.5942 245° Southwest 264 304 20,000  Level Cleveland Center
09:23PM 41.5958 -77.6786 247° West 259 298 20,000  Level Cleveland Center
09:24PM 41.5731 -77.7686 251° West 254 292 20,000  Level Cleveland Center
09:25PM 41.5525 -77.8556 252° West 254 292 20,000  Level Cleveland Center
09:26PM 41.5272 -77.9425 249° West 254 292 20,000  Level Cleveland Center
09:27PM 41.4917 -78.0272 241° Southwest 254 292 20,000  Level Cleveland Center
09:28PM 41.4622 -78.1142 246° West 259 298 20,000  Level Cleveland Center
09:29PM 41.4372 -78.2039 250° West 259 298 20,000  Level Cleveland Center
09:30PM 41.4139 -78.2933 251° West 259 298 20,000  Level Cleveland Center
09:31PM 41.3947 -78.3825 254° West 254 292 20,000  Level Cleveland Center
09:32PM 41.3675 -78.4803 250° West 254 292 20,000  Level Cleveland Center
09:33PM 41.3419 -78.5697 249° West 249 287 20,000  Level Cleveland Center
09:34PM 41.3142 -78.6561 247° West 254 292 20,000  Level Cleveland Center
09:35PM 41.2844 -78.7428 245° Southwest 254 292 20,000  Level Cleveland Center
09:36PM 41.2525 -78.8294 244° Southwest 254 292 20,000  Level Cleveland Center
09:37PM 41.2183 -78.9131 242° Southwest 260 299 20,000  Level Cleveland Center
09:38PM 41.1819 -78.9939 239° Southwest 260 299 20,000  Level Cleveland Center
09:39PM 41.1517 -79.0747 244° Southwest 265 305 20,000  Level Cleveland Center
09:40PM 41.1214 -79.1608 245° Southwest 260 299 20,000  Level Cleveland Center
09:41PM 41.0933 -79.2497 247° West 260 299 20,000  Level Cleveland Center
09:42PM 41.0631 -79.3356 245° Southwest 260 299 20,000  Level Cleveland Center
09:43PM 41.0369 -79.4214 248° West 260 299 20,000  Level Cleveland Center
09:44PM 41.0128 -79.5100 250° West 260 299 20,000  Level Cleveland Center
09:45PM 40.9947 -79.5983 255° West 254 292 20,000  Level Cleveland Center
09:46PM 40.9789 -79.6892 257° West 249 287 20,000  Level Cleveland Center
09:47PM 40.9586 -79.7747 253° West 249 287 20,000  Level Cleveland Center
09:48PM 40.9300 -79.8603 246° West 244 281 20,000  Level Cleveland Center
09:49PM 40.8950 -79.9431 241° Southwest 251 289 20,000  Level Cleveland Center
09:50PM 40.8642 -80.0258 244° Southwest 257 296 20,000  Level Cleveland Center
09:51PM 40.8417 -80.1056 250° West 257 296 20,000  Level Cleveland Center
09:52PM 40.8233 -80.1964 255° West 257 296 20,000  Level Cleveland Center
09:53PM 40.7922 -80.2758 243° Southwest 257 296 20,000  Level Cleveland Center
09:54PM 40.7467 -80.3611 235° Southwest 257 296 20,000  Level Cleveland Center
09:55PM 40.7008 -80.4353 231° Southwest 264 304 20,000  Level Cleveland Center
09:56PM 40.6653 -80.5011 235° Southwest 264 304 20,000  Level Cleveland Center
09:57PM 40.6258 -80.5858 238° Southwest 269 310 20,000  Level Cleveland Center
09:58PM 40.5925 -80.6597 239° Southwest 262 302 20,000  Level Cleveland Center
09:59PM 40.5547 -80.7389 238° Southwest 257 296 20,000  Level Cleveland Center
10:00PM 40.5150 -80.8153 236° Southwest 257 296 20,000  Level Cleveland Center
10:01PM 40.4733 -80.8914 234° Southwest 262 302 20,000  Level Cleveland Center
10:02PM 40.4292 -80.9622 231° Southwest 262 302 20,000  Level Cleveland Center
10:03PM 40.3872 -81.0356 233° Southwest 262 302 20,000  Level Cleveland Center
10:04PM 40.3411 -81.1061 229° Southwest 262 302 20,000  Level Cleveland Center
10:05PM 40.2950 -81.1792 230° Southwest 262 302 20,000  Level Cleveland Center
10:06PM 40.2508 -81.2494 231° Southwest 257 296 20,000  Level Cleveland Center
10:08PM 40.1581 -81.4222 235° Southwest 247 284 20,000  Level Indianapolis Center
10:09PM 40.1242 -81.5014 241° Southwest 247 284 20,000  Level Indianapolis Center
10:10PM 40.0914 -81.5797 241° Southwest 245 282 20,000  Level Indianapolis Center
10:11PM 40.0533 -81.6733 242° Southwest 247 284 20,000  Level Indianapolis Center
10:12PM 40.0217 -81.7522 242° Southwest 244 281 20,000  Level Indianapolis Center
10:13PM 39.9936 -81.8186 241° Southwest 242 278 20,000  Level Indianapolis Center
10:14PM 39.9597 -81.8994 241° Southwest 248 285 20,000  Level Indianapolis Center
10:15PM 39.9222 -81.9936 243° Southwest 250 288 20,000  Level Indianapolis Center
10:16PM 39.8914 -82.0728 243° Southwest 243 280 20,000  Level Indianapolis Center
10:17PM 39.8603 -82.1531 243° Southwest 245 282 20,000  Level Indianapolis Center
10:18PM 39.8292 -82.2314 243° Southwest 241 277 20,000  Level Indianapolis Center
10:19PM 39.7978 -82.3117 243° Southwest 245 282 20,000  Level Indianapolis Center
10:20PM 39.7669 -82.3911 243° Southwest 244 281 20,000  Level Indianapolis Center
10:21PM 39.7400 -82.4739 247° West 247 284 20,000  Level Indianapolis Center
10:22PM 39.7158 -82.5567 249° West 244 281 20,000  Level Indianapolis Center
10:23PM 39.6911 -82.6403 249° West 245 282 20,000 -180 Level Indianapolis Center
10:24PM 39.6681 -82.7236 250° West 242 278 19,700 -780 Descending Indianapolis Center
10:25PM 39.6450 -82.8097 251° West 249 287 18,500 -1,380 Descending Indianapolis Center
10:26PM 39.6225 -82.8975 252° West 253 291 17,000 -1,380 Descending Indianapolis Center
10:28PM 39.6006 -82.9883 253° West 260 299 15,700 -1,260 Descending Indianapolis Center
10:29PM 39.5803 -83.0761 253° West 254 292 14,500 -1,260 Descending Indianapolis Center
10:30PM 39.5522 -83.1608 247° West 253 291 13,200 -1,320 Descending Indianapolis Center
10:31PM 39.5225 -83.2467 246° West 258 297 11,900 -1,200 Descending Indianapolis Center
10:31PM 39.5119 -83.2817 249° West 259 298 11,600 -1,200 Descending Indianapolis Center
10:32PM 39.4928 -83.3311 243° Southwest 255 293 10,700 -1,320 Descending Indianapolis Center
10:33PM 39.4639 -83.4136 246° West 250 288 9,500 -840 Descending Indianapolis Center
10:34PM 39.4397 -83.4922 248° West 238 274 9,000 -240 Descending Indianapolis Center
10:35PM 39.4125 -83.5689 245° Southwest 232 267 9,100  Climbing Indianapolis Center
10:36PM 39.3831 -83.6481 244° Southwest 239 275 9,100  Level Indianapolis Center
10:37PM 39.3550 -83.7286 246° West 242 278 9,100 -540 Level Indianapolis Center
10:38PM 39.3283 -83.8058 246° West 237 273 8,100 -1,140 Descending Indianapolis Center
10:39PM 39.3019 -83.8822 246° West 232 267 6,800 -1,020 Descending Indianapolis Center
10:40PM 39.2778 -83.9597 248° West 231 266 6,100 -360 Descending Indianapolis Center
10:41PM 39.2558 -84.0361 250° West 228 262 6,100  Level Indianapolis Center
10:42PM 39.2278 -84.1200 247° West 228 262 6,100 -540 Level Indianapolis Center
10:43PM 39.2061 -84.1850 247° West 224 258 5,100 -540 Descending Indianapolis Center
10:44PM 39.1844 -84.2617 250° West 224 258 5,000  Descending Indianapolis Center
10:45PM 39.1597 -84.3350 247° West 223 257 5,100 -240 Climbing Indianapolis Center
10:46PM 39.1333 -84.4056 244° Southwest 220 253 4,600 -840 Descending Indianapolis Center
10:47PM 39.1297 -84.4850 267° West 218 251 3,400 -780 Descending Indianapolis Center
10:48PM 39.1236 -84.5711 265° West 216 249 3,100 -660 Descending Indianapolis Center
10:49PM 39.1167 -84.6167 259° West 184 212 2,300 -780 Descending Cincinnati TRACON
10:50PM 39.1167 -84.6667 270° West 122 140 1,800 -540 Descending Cincinnati TRACON
10:51PM 39.0833 -84.6833 201° Southwest 95 109 1,300 -540 Descending Cincinnati TRACON
10:53PM 39.0488 -84.6678 165° South  Level Estimated